createdAt,value
2023-04-04T00:00:58.433Z,2.03
2023-04-04T00:03:29.738Z,2.02
2023-04-04T00:05:57.864Z,2.05
2023-04-04T00:08:25.797Z,2.04
2023-04-04T00:11:01.244Z,2.06
2023-04-04T00:13:31.096Z,2.07
2023-04-04T00:15:59.031Z,2.08
2023-04-04T00:18:27.468Z,2.07
2023-04-04T00:20:55.449Z,2.07
2023-04-04T00:23:27.600Z,2.05
2023-04-04T00:25:55.728Z,2.07
2023-04-04T00:28:23.639Z,2.08
2023-04-04T00:30:51.453Z,2.13
2023-04-04T00:33:20.261Z,2.11
2023-04-04T00:35:48.812Z,2.16
2023-04-04T00:38:16.953Z,2.18
2023-04-04T00:40:46.296Z,2.18
2023-04-04T00:43:14.579Z,2.19
2023-04-04T00:45:43.064Z,2.17
2023-04-04T00:48:11.601Z,2.14
2023-04-04T00:50:40.128Z,2.12
2023-04-04T00:53:10.572Z,2.08
2023-04-04T00:55:39.738Z,2.10
2023-04-04T00:58:07.557Z,2.12
2023-04-04T01:00:35.973Z,2.14
2023-04-04T01:03:23.574Z,2.13
2023-04-04T01:05:51.845Z,2.11
2023-04-04T01:08:21.585Z,2.11
2023-04-04T01:10:50.710Z,2.12
2023-04-04T01:13:18.842Z,2.13
2023-04-04T01:15:47.920Z,2.08
2023-04-04T01:18:17.288Z,2.03
2023-04-04T01:20:56.612Z,2.03
2023-04-04T01:23:24.991Z,2.01
2023-04-04T01:25:59.747Z,2.02
2023-04-04T01:28:27.879Z,2.05
2023-04-04T01:30:56.953Z,2.08
2023-04-04T01:33:44.700Z,2.12
2023-04-04T01:36:21.693Z,2.15
2023-04-04T01:38:54.477Z,2.16
2023-04-04T01:41:24.981Z,2.14
2023-04-04T01:43:57.280Z,2.18
2023-04-04T01:46:25.723Z,2.24
2023-04-04T01:48:53.917Z,2.25
2023-04-04T01:51:25.504Z,2.31
2023-04-04T01:53:53.921Z,2.34
2023-04-04T01:56:22.019Z,2.37
2023-04-04T01:58:50.020Z,2.37
2023-04-04T02:01:17.896Z,2.30
2023-04-04T02:03:45.751Z,2.23
2023-04-04T02:06:14.518Z,2.15
2023-04-04T02:08:43.296Z,2.11
2023-04-04T02:11:12.395Z,2.11
2023-04-04T02:13:46.058Z,2.14
2023-04-04T02:16:16.481Z,2.14
2023-04-04T02:18:45.005Z,2.14
2023-04-04T02:21:17.877Z,2.11
2023-04-04T02:23:45.804Z,2.16
2023-04-04T02:26:13.642Z,2.25
2023-04-04T02:28:43.986Z,2.21
2023-04-04T02:31:11.937Z,2.12
2023-04-04T02:33:41.671Z,2.13
2023-04-04T02:36:15.526Z,2.09
2023-04-04T02:38:43.816Z,2.10
2023-04-04T02:41:11.639Z,2.04
2023-04-04T02:43:40.772Z,2.03
2023-04-04T02:46:20.491Z,2.03
2023-04-04T02:48:52.341Z,2.04
2023-04-04T02:51:20.433Z,2.04
2023-04-04T02:53:48.978Z,2.07
2023-04-04T02:56:23.520Z,2.09
2023-04-04T02:58:51.336Z,2.08
2023-04-04T03:01:19.669Z,2.03
2023-04-04T03:03:48.105Z,2.01
2023-04-04T03:06:16.139Z,2.01
2023-04-04T03:08:43.999Z,2.04
2023-04-04T03:11:11.967Z,2.04
2023-04-04T03:13:39.885Z,2.05
2023-04-04T03:16:08.003Z,2.08
2023-04-04T03:18:47.301Z,2.02
2023-04-04T03:21:20.310Z,1.97
2023-04-04T03:23:48.790Z,1.99
2023-04-04T03:26:16.790Z,2.03
2023-04-04T03:28:45.490Z,2.00
2023-04-04T03:31:13.606Z,1.97
2023-04-04T03:33:43.083Z,1.91
2023-04-04T03:36:12.498Z,1.96
2023-04-04T03:38:41.055Z,1.98
2023-04-04T03:41:10.888Z,1.98
2023-04-04T03:43:39.215Z,1.97
2023-04-04T03:46:07.757Z,1.96
2023-04-04T03:48:35.688Z,1.97
2023-04-04T03:51:05.213Z,1.94
2023-04-04T03:53:33.556Z,1.85
2023-04-04T03:56:04.940Z,1.77
2023-04-04T03:58:35.507Z,1.76
2023-04-04T04:01:03.519Z,1.74
2023-04-04T04:03:31.766Z,1.76
2023-04-04T04:06:00.284Z,1.79
2023-04-04T04:08:28.169Z,1.82
2023-04-04T04:11:04.443Z,1.83
2023-04-04T04:13:34.767Z,1.82
2023-04-04T04:16:03.610Z,1.83
2023-04-04T04:18:32.772Z,1.82
2023-04-04T04:21:02.998Z,1.83
2023-04-04T04:23:36.731Z,1.83
2023-04-04T04:26:05.353Z,1.85
2023-04-04T04:28:34.475Z,1.89
2023-04-04T04:31:09.252Z,1.87
2023-04-04T04:33:42.469Z,1.85
2023-04-04T04:36:11.561Z,1.79
2023-04-04T04:39:02.740Z,1.81
2023-04-04T04:41:33.493Z,1.80
2023-04-04T04:44:02.281Z,1.83
2023-04-04T04:46:31.803Z,1.92
2023-04-04T04:49:05.858Z,1.91
2023-04-04T04:51:35.970Z,1.88
2023-04-04T04:54:03.790Z,1.87
2023-04-04T04:56:34.072Z,1.89
2023-04-04T04:59:09.122Z,1.89
2023-04-04T05:01:42.687Z,1.86
2023-04-04T05:04:11.255Z,1.85
2023-04-04T05:06:44.809Z,1.88
2023-04-04T05:09:15.548Z,1.88
2023-04-04T05:11:47.812Z,1.86
2023-04-04T05:14:16.033Z,1.83
2023-04-04T05:16:53.268Z,1.83
2023-04-04T05:19:22.048Z,1.79
2023-04-04T05:21:52.568Z,1.81
2023-04-04T05:24:43.786Z,1.90
2023-04-04T05:27:14.956Z,2.04
2023-04-04T05:29:48.280Z,2.14
2023-04-04T05:32:19.059Z,2.11
2023-04-04T05:34:53.147Z,2.06
2023-04-04T05:37:21.718Z,2.01
2023-04-04T05:39:50.574Z,1.96
2023-04-04T05:42:19.048Z,1.92
2023-04-04T05:44:50.419Z,1.86
2023-04-04T05:47:21.985Z,1.79
2023-04-04T05:49:50.580Z,1.75
2023-04-04T05:52:20.372Z,1.73
2023-04-04T05:54:49.177Z,1.76
2023-04-04T05:57:24.211Z,1.77
2023-04-04T06:00:02.226Z,1.76
2023-04-04T06:02:33.628Z,1.76
2023-04-04T06:05:04.535Z,1.76
2023-04-04T06:07:39.734Z,1.75
2023-04-04T06:10:09.669Z,1.74
2023-04-04T06:12:39.428Z,1.78
2023-04-04T06:15:10.788Z,1.85
2023-04-04T06:17:39.796Z,1.86
2023-04-04T06:20:08.689Z,1.80
2023-04-04T06:22:37.061Z,1.78
2023-04-04T06:25:06.618Z,1.77
2023-04-04T06:27:35.467Z,1.71
2023-04-04T06:30:08.619Z,1.67
2023-04-04T06:32:45.168Z,1.66
2023-04-04T06:35:19.536Z,1.62
2023-04-04T06:37:56.113Z,1.61
2023-04-04T06:40:25.733Z,1.59
2023-04-04T06:42:57.956Z,1.60
2023-04-04T06:45:29.703Z,1.68
2023-04-04T06:47:58.237Z,1.69
2023-04-04T06:50:27.451Z,1.67
2023-04-04T06:52:55.579Z,1.64
2023-04-04T06:55:23.783Z,1.65
2023-04-04T06:57:54.468Z,1.63
2023-04-04T07:00:22.314Z,1.62
2023-04-04T07:02:50.675Z,1.60
2023-04-04T07:05:18.497Z,1.62
2023-04-04T07:07:47.810Z,1.73
2023-04-04T07:10:15.843Z,1.81
2023-04-04T07:12:45.559Z,1.80
2023-04-04T07:15:13.760Z,1.85
2023-04-04T07:17:42.966Z,1.86
2023-04-04T07:20:11.459Z,1.82
2023-04-04T07:22:40.234Z,1.77
2023-04-04T07:25:09.736Z,1.76
2023-04-04T07:27:37.891Z,1.77
2023-04-04T07:30:06.230Z,1.84
2023-04-04T07:32:34.260Z,1.87
2023-04-04T07:35:05.108Z,1.90
2023-04-04T07:37:33.507Z,1.87
2023-04-04T07:40:01.426Z,1.77
2023-04-04T07:42:31.209Z,1.84
2023-04-04T07:44:59.398Z,1.83
2023-04-04T07:47:28.353Z,1.83
2023-04-04T07:49:56.514Z,1.85
2023-04-04T07:52:24.269Z,1.84
2023-04-04T07:54:52.998Z,1.86
2023-04-04T07:57:21.188Z,1.89
2023-04-04T07:59:48.996Z,1.92
2023-04-04T08:02:22.490Z,1.94
2023-04-04T08:04:50.589Z,1.95
2023-04-04T08:07:18.316Z,1.97
2023-04-04T08:09:46.089Z,1.98
2023-04-04T08:12:14.242Z,2.01
2023-04-04T08:14:42.230Z,2.06
2023-04-04T08:17:10.086Z,2.04
2023-04-04T08:19:38.465Z,2.05
2023-04-04T08:22:06.233Z,2.05
2023-04-04T08:24:35.205Z,2.16
2023-04-04T08:27:05.645Z,2.21
2023-04-04T08:29:34.432Z,2.23
2023-04-04T08:32:02.769Z,2.22
2023-04-04T08:34:30.801Z,2.26
2023-04-04T08:36:58.704Z,2.27
2023-04-04T08:39:27.315Z,2.25
2023-04-04T08:41:58.258Z,2.28
2023-04-04T08:44:26.232Z,2.31
2023-04-04T08:46:54.000Z,2.38
2023-04-04T08:49:22.316Z,2.37
2023-04-04T08:51:50.085Z,2.32
2023-04-04T08:54:17.857Z,2.35
2023-04-04T08:56:45.720Z,2.40
2023-04-04T08:59:15.726Z,2.49
2023-04-04T09:01:45.153Z,2.55
2023-04-04T09:04:13.799Z,2.64
2023-04-04T09:06:42.263Z,2.68
2023-04-04T09:09:10.359Z,2.75
2023-04-04T09:11:38.055Z,2.72
2023-04-04T09:14:06.215Z,2.77
2023-04-04T09:16:35.011Z,2.79
2023-04-04T09:19:03.123Z,2.82
2023-04-04T09:21:33.248Z,2.86
2023-04-04T09:24:01.381Z,2.86
2023-04-04T09:26:30.357Z,2.88
2023-04-04T09:28:58.797Z,2.89
2023-04-04T09:31:27.264Z,2.93
2023-04-04T09:33:55.100Z,3.00
2023-04-04T09:36:23.165Z,3.08
2023-04-04T09:38:51.289Z,3.13
2023-04-04T09:41:20.923Z,3.21
2023-04-04T09:43:49.520Z,3.29
2023-04-04T09:46:21.241Z,3.22
2023-04-04T09:48:50.791Z,3.24
2023-04-04T09:51:18.721Z,3.21
2023-04-04T09:53:47.664Z,3.23
2023-04-04T09:56:15.785Z,3.25
2023-04-04T09:59:00.276Z,3.27
2023-04-04T10:01:31.650Z,3.29
2023-04-04T10:04:00.201Z,3.30
2023-04-04T10:06:28.727Z,3.36
2023-04-04T10:08:59.532Z,3.41
2023-04-04T10:11:32.411Z,3.43
2023-04-04T10:14:00.997Z,3.45
2023-04-04T10:16:37.296Z,3.52
2023-04-04T10:19:07.900Z,3.62
2023-04-04T10:21:43.079Z,3.63
2023-04-04T10:24:11.554Z,3.64
2023-04-04T10:26:39.587Z,3.67
2023-04-04T10:29:10.447Z,3.65
2023-04-04T10:31:41.099Z,3.65
2023-04-04T10:34:15.134Z,3.66
2023-04-04T10:36:44.920Z,3.62
2023-04-04T10:39:12.855Z,3.67
2023-04-04T10:41:40.811Z,3.68
2023-04-04T10:44:15.225Z,3.74
2023-04-04T10:46:43.401Z,3.75
2023-04-04T10:49:11.724Z,3.80
2023-04-04T10:51:53.058Z,3.89
2023-04-04T10:54:25.230Z,3.95
2023-04-04T10:56:53.690Z,4.01
2023-04-04T10:59:22.422Z,4.05
2023-04-04T11:01:58.508Z,4.10
2023-04-04T11:04:38.298Z,4.15
2023-04-04T11:07:09.466Z,4.13
2023-04-04T11:09:46.682Z,4.10
2023-04-04T11:12:21.717Z,4.12
2023-04-04T11:15:02.497Z,4.11
2023-04-04T11:17:49.040Z,4.17
2023-04-04T11:20:21.403Z,4.26
2023-04-04T11:22:50.012Z,4.33
2023-04-04T11:25:25.990Z,4.36
2023-04-04T11:27:54.968Z,4.34
2023-04-04T11:30:22.901Z,4.35
2023-04-04T11:33:03.986Z,4.39
2023-04-04T11:35:37.957Z,4.47
2023-04-04T11:38:14.653Z,4.48
2023-04-04T11:40:43.425Z,4.51
2023-04-04T11:43:17.092Z,4.49
2023-04-04T11:45:45.407Z,4.50
2023-04-04T11:48:17.860Z,4.48
2023-04-04T11:50:49.632Z,4.48
2023-04-04T11:53:17.940Z,4.58
2023-04-04T11:55:48.357Z,4.62
2023-04-04T11:58:16.555Z,4.65
2023-04-04T12:00:47.848Z,4.67
2023-04-04T12:03:18.518Z,4.71
2023-04-04T12:05:46.818Z,4.73
2023-04-04T12:08:18.303Z,4.77
2023-04-04T12:10:47.563Z,4.80
2023-04-04T12:13:15.533Z,4.83
2023-04-04T12:15:44.972Z,4.81
2023-04-04T12:18:20.183Z,4.76
2023-04-04T12:20:48.375Z,4.73
2023-04-04T12:23:18.971Z,4.64
2023-04-04T12:25:49.911Z,4.60
2023-04-04T12:28:20.236Z,4.53
2023-04-04T12:30:48.533Z,4.58
2023-04-04T12:33:17.456Z,4.50
2023-04-04T12:35:55.029Z,4.48
2023-04-04T12:38:24.899Z,4.46
2023-04-04T12:40:52.922Z,4.48
2023-04-04T12:43:21.169Z,4.48
2023-04-04T12:45:52.186Z,4.47
2023-04-04T12:48:21.423Z,4.46
2023-04-04T12:50:53.353Z,4.48
2023-04-04T12:53:28.879Z,4.47
2023-04-04T12:56:02.326Z,4.44
2023-04-04T12:58:31.434Z,4.47
2023-04-04T13:01:00.031Z,4.52
2023-04-04T13:03:29.504Z,4.58
2023-04-04T13:05:58.435Z,4.62
2023-04-04T13:08:26.448Z,4.62
2023-04-04T13:11:02.149Z,4.65
2023-04-04T13:13:38.893Z,4.70
2023-04-04T13:16:10.620Z,4.76
2023-04-04T13:18:39.267Z,4.77
2023-04-04T13:21:07.993Z,4.79
2023-04-04T13:23:37.647Z,4.81
2023-04-04T13:26:06.013Z,4.83
2023-04-04T13:28:34.057Z,4.79
2023-04-04T13:31:08.187Z,4.78
2023-04-04T13:33:36.798Z,4.80
2023-04-04T13:36:04.955Z,4.84
2023-04-04T13:38:36.673Z,4.83
2023-04-04T13:41:05.292Z,4.82
2023-04-04T13:43:34.932Z,4.80
2023-04-04T13:46:03.422Z,4.84
2023-04-04T13:48:32.092Z,4.85
2023-04-04T13:51:00.998Z,4.88
2023-04-04T13:53:28.980Z,4.91
2023-04-04T13:56:16.778Z,4.95
2023-04-04T13:58:47.295Z,4.92
2023-04-04T14:01:15.502Z,4.89
2023-04-04T14:03:44.670Z,4.83
2023-04-04T14:06:12.791Z,4.81
2023-04-04T14:08:40.579Z,4.80
2023-04-04T14:11:10.829Z,4.77
2023-04-04T14:13:40.056Z,4.74
2023-04-04T14:16:08.562Z,4.74
2023-04-04T14:18:37.019Z,4.79
2023-04-04T14:21:05.423Z,4.75
2023-04-04T14:23:33.245Z,4.73
2023-04-04T14:26:01.263Z,4.69
2023-04-04T14:28:31.506Z,4.67
2023-04-04T14:30:59.932Z,4.66
2023-04-04T14:33:27.926Z,4.67
2023-04-04T14:35:55.877Z,4.64
2023-04-04T14:38:23.628Z,4.62
2023-04-04T14:40:52.824Z,4.59
2023-04-04T14:43:21.689Z,4.58
2023-04-04T14:45:50.912Z,4.56
2023-04-04T14:48:19.057Z,4.58
2023-04-04T14:50:47.012Z,4.60
2023-04-04T14:53:17.328Z,4.57
2023-04-04T14:55:45.395Z,4.59
2023-04-04T14:58:14.551Z,4.56
2023-04-04T15:00:42.769Z,4.56
2023-04-04T15:03:12.449Z,4.56
2023-04-04T15:05:43.993Z,4.55
2023-04-04T15:08:13.291Z,4.56
2023-04-04T15:10:41.419Z,4.58
2023-04-04T15:13:13.844Z,4.60
2023-04-04T15:15:42.955Z,4.62
2023-04-04T15:18:11.101Z,4.61
2023-04-04T15:20:41.046Z,4.61
2023-04-04T15:23:09.132Z,4.65
2023-04-04T15:25:37.005Z,4.64
2023-04-04T15:28:05.394Z,4.63
2023-04-04T15:30:33.542Z,4.65
2023-04-04T15:33:02.702Z,4.69
2023-04-04T15:35:30.978Z,4.71
2023-04-04T15:37:59.087Z,4.70
2023-04-04T15:40:27.203Z,4.67
2023-04-04T15:42:56.994Z,4.65
2023-04-04T15:45:24.937Z,4.62
2023-04-04T15:47:53.204Z,4.61
2023-04-04T15:50:21.415Z,4.60
2023-04-04T15:52:49.488Z,4.61
2023-04-04T15:55:20.679Z,4.60
2023-04-04T15:57:49.723Z,4.60
2023-04-04T16:00:17.770Z,4.58
2023-04-04T16:02:47.127Z,4.58
2023-04-04T16:05:15.353Z,4.59
2023-04-04T16:07:43.680Z,4.54
2023-04-04T16:10:14.718Z,4.54
2023-04-04T16:12:43.183Z,4.53
2023-04-04T16:15:12.527Z,4.54
2023-04-04T16:17:40.918Z,4.54
2023-04-04T16:20:10.080Z,4.53
2023-04-04T16:22:38.066Z,4.51
2023-04-04T16:25:08.759Z,4.52
2023-04-04T16:27:37.272Z,4.52
2023-04-04T16:30:08.257Z,4.52
2023-04-04T16:32:37.435Z,4.51
2023-04-04T16:35:06.234Z,4.52
2023-04-04T16:37:36.800Z,4.55
2023-04-04T16:40:05.194Z,4.56
2023-04-04T16:42:33.220Z,4.55
2023-04-04T16:45:01.910Z,4.55
2023-04-04T16:47:30.643Z,4.52
2023-04-04T16:49:58.770Z,4.48
2023-04-04T16:52:26.961Z,4.47
2023-04-04T16:54:55.427Z,4.47
2023-04-04T16:57:25.017Z,4.48
2023-04-04T16:59:52.914Z,4.48
2023-04-04T17:02:20.680Z,4.46
2023-04-04T17:04:48.522Z,4.42
2023-04-04T17:07:16.975Z,4.33
2023-04-04T17:09:46.526Z,4.26
2023-04-04T17:12:15.502Z,4.23
2023-04-04T17:14:45.311Z,4.23
2023-04-04T17:17:13.528Z,4.21
2023-04-04T17:19:41.647Z,4.18
2023-04-04T17:22:09.441Z,4.18
2023-04-04T17:24:37.490Z,4.15
2023-04-04T17:27:05.396Z,4.15
2023-04-04T17:29:33.312Z,4.11
2023-04-04T17:32:02.825Z,4.09
2023-04-04T17:34:30.933Z,4.04
2023-04-04T17:36:59.023Z,4.00
2023-04-04T17:39:27.151Z,4.03
2023-04-04T17:41:54.856Z,4.00
2023-04-04T17:44:23.133Z,4.02
2023-04-04T17:46:51.213Z,3.99
2023-04-04T17:49:22.173Z,3.96
2023-04-04T17:51:50.269Z,3.95
2023-04-04T17:54:18.070Z,3.91
2023-04-04T17:56:47.231Z,3.87
2023-04-04T17:59:17.487Z,3.87
2023-04-04T18:01:45.432Z,3.83
2023-04-04T18:04:13.994Z,3.84
2023-04-04T18:06:42.184Z,3.80
2023-04-04T18:09:10.653Z,3.77
2023-04-04T18:11:40.325Z,3.76
2023-04-04T18:14:08.736Z,3.76
2023-04-04T18:16:40.335Z,3.80
2023-04-04T18:19:09.694Z,3.79
2023-04-04T18:21:38.479Z,3.78
2023-04-04T18:24:07.944Z,3.78
2023-04-04T18:26:36.082Z,3.80
2023-04-04T18:29:04.059Z,3.82
2023-04-04T18:31:32.085Z,3.85
2023-04-04T18:34:00.967Z,3.84
2023-04-04T18:36:29.053Z,3.86
2023-04-04T18:38:57.599Z,3.78
2023-04-04T18:41:25.974Z,3.74
2023-04-04T18:43:53.876Z,3.76
2023-04-04T18:46:22.059Z,3.84
2023-04-04T18:48:50.047Z,3.89
2023-04-04T18:51:21.519Z,3.97
2023-04-04T18:53:53.231Z,4.09
2023-04-04T18:56:22.306Z,4.15
2023-04-04T18:58:50.709Z,4.22
2023-04-04T19:01:19.125Z,4.25
2023-04-04T19:03:51.450Z,4.24
2023-04-04T19:06:21.040Z,4.20
2023-04-04T19:08:48.849Z,4.18
2023-04-04T19:11:16.858Z,4.07
2023-04-04T19:13:44.797Z,3.98
2023-04-04T19:16:15.664Z,3.88
2023-04-04T19:18:44.460Z,3.88
2023-04-04T19:21:12.288Z,3.82
2023-04-04T19:23:41.696Z,3.76
2023-04-04T19:26:09.608Z,3.75
2023-04-04T19:28:37.777Z,3.72
2023-04-04T19:31:07.786Z,3.67
2023-04-04T19:33:36.992Z,3.63
2023-04-04T19:36:09.434Z,3.58
2023-04-04T19:38:40.409Z,3.55
2023-04-04T19:41:09.489Z,3.54
2023-04-04T19:43:37.723Z,3.54
2023-04-04T19:46:09.574Z,3.52
2023-04-04T19:48:51.060Z,3.51
2023-04-04T19:51:19.984Z,3.47
2023-04-04T19:53:57.079Z,3.42
2023-04-04T19:56:26.079Z,3.39
2023-04-04T19:58:55.404Z,3.37
2023-04-04T20:01:23.961Z,3.38
2023-04-04T20:03:52.382Z,3.37
2023-04-04T20:06:31.647Z,3.33
2023-04-04T20:09:07.411Z,3.31
2023-04-04T20:11:35.896Z,3.38
2023-04-04T20:14:07.584Z,3.40
2023-04-04T20:16:36.011Z,3.39
2023-04-04T20:19:06.624Z,3.33
2023-04-04T20:21:35.779Z,3.22
2023-04-04T20:24:10.248Z,3.14
2023-04-04T20:26:38.034Z,3.07
2023-04-04T20:29:06.420Z,3.10
2023-04-04T20:31:35.057Z,3.07
2023-04-04T20:34:05.052Z,3.01
2023-04-04T20:36:33.058Z,2.98
2023-04-04T20:39:01.484Z,2.98
2023-04-04T20:41:29.943Z,2.93
2023-04-04T20:43:58.397Z,2.89
2023-04-04T20:46:26.745Z,2.87
2023-04-04T20:48:56.578Z,2.81
2023-04-04T20:51:31.000Z,2.74
2023-04-04T20:53:59.741Z,2.74
2023-04-04T20:56:39.592Z,2.75
2023-04-04T20:59:07.974Z,2.64
2023-04-04T21:01:35.917Z,2.68
2023-04-04T21:04:04.239Z,2.64
2023-04-04T21:06:32.273Z,2.61
2023-04-04T21:09:02.078Z,2.60
2023-04-04T21:11:30.474Z,2.64
2023-04-04T21:13:58.865Z,2.58
2023-04-04T21:16:27.281Z,2.55
2023-04-04T21:18:59.046Z,2.51
2023-04-04T21:21:27.304Z,2.52
2023-04-04T21:23:58.880Z,2.55
2023-04-04T21:26:29.886Z,2.51
2023-04-04T21:29:02.118Z,2.45
2023-04-04T21:31:35.122Z,2.43
2023-04-04T21:34:07.171Z,2.47
2023-04-04T21:36:36.366Z,2.51
2023-04-04T21:39:09.617Z,2.50
2023-04-04T21:41:38.191Z,2.49
2023-04-04T21:44:06.990Z,2.46
2023-04-04T21:46:35.768Z,2.44
2023-04-04T21:49:04.167Z,2.44
2023-04-04T21:51:32.262Z,2.48
2023-04-04T21:54:00.453Z,2.50
2023-04-04T21:56:31.539Z,2.42
2023-04-04T21:59:04.145Z,2.46
2023-04-04T22:01:32.200Z,2.46
2023-04-04T22:04:01.784Z,2.45
2023-04-04T22:06:31.205Z,2.45
2023-04-04T22:08:59.362Z,2.44
2023-04-04T22:11:27.728Z,2.48
2023-04-04T22:14:07.474Z,2.46
2023-04-04T22:16:42.898Z,2.44
2023-04-04T22:19:11.934Z,2.50
2023-04-04T22:21:48.072Z,2.49
2023-04-04T22:24:18.275Z,2.46
2023-04-04T22:26:47.430Z,2.47
2023-04-04T22:29:15.565Z,2.46
2023-04-04T22:31:43.688Z,2.39
2023-04-04T22:34:14.753Z,2.38
2023-04-04T22:36:45.916Z,2.39
2023-04-04T22:39:16.367Z,2.47
2023-04-04T22:41:44.799Z,2.48
2023-04-04T22:44:13.429Z,2.52
2023-04-04T22:46:41.710Z,2.54
2023-04-04T22:49:09.913Z,2.57
2023-04-04T22:51:45.473Z,2.60
2023-04-04T22:54:15.484Z,2.55
2023-04-04T22:56:43.531Z,2.52
2023-04-04T22:59:12.173Z,2.52
2023-04-04T23:01:40.526Z,2.48
2023-04-04T23:04:09.919Z,2.48
2023-04-04T23:06:38.658Z,2.58
2023-04-04T23:09:08.035Z,2.56
2023-04-04T23:11:37.086Z,2.58
2023-04-04T23:14:14.974Z,2.52
2023-04-04T23:16:43.945Z,2.52
2023-04-04T23:19:12.474Z,2.52
2023-04-04T23:21:40.507Z,2.51
2023-04-04T23:24:08.845Z,2.50
2023-04-04T23:26:36.741Z,2.50
2023-04-04T23:29:05.740Z,2.47
2023-04-04T23:31:33.682Z,2.48
2023-04-04T23:34:02.294Z,2.46
2023-04-04T23:36:31.129Z,2.49
2023-04-04T23:38:59.441Z,2.47
2023-04-04T23:41:27.434Z,2.49
2023-04-04T23:43:55.790Z,2.49
2023-04-04T23:46:23.977Z,2.52
2023-04-04T23:48:52.097Z,2.58
2023-04-04T23:51:23.551Z,2.57
2023-04-04T23:53:51.315Z,2.62
2023-04-04T23:56:19.107Z,2.61
2023-04-04T23:58:48.954Z,2.54
